ENSE

Snorre A Oilp

Snorre A Oilp, Norway
METAR ENSE 161220Z AUTO 15058G70KT 9999NDV -SHRA FEW025/// BKN032/// BKN037/// 06/01 Q1002 W///S8
Observed Flight Rules
Dec-16 @ 12:20 UTC (40 minutes ago)
Wind Clouds Conditions
150° at 58 knots
 Gusting to 70 knots
  • Few at 2,500' AGL
  • Broken at 3,200' AGL
  • Broken at 3,700' AGL
  • Light Rain
Temperatures Readings
Current 6°C / 43°F
Dewpoint 1°C / 34°F
Humidity 71%
Altimeter 29.59" Hg
Pressure 1002 hPa
Elevation 10
METAR ENSE 161220Z AUTO 15058G70KT 9999NDV -SHRA FEW025/// BKN032/// BKN037/// 06/01 Q1002 W///S8
Observed Flight Rules
Dec-16 @ 12:20 UTC
(40 minutes ago)
Wind
150° at 58 knots
 Gusting to 70 knots
Clouds
  • Few at 2,500' AGL
  • Broken at 3,200' AGL
  • Broken at 3,700' AGL
Conditions
  • Light Rain
Temperature Dewpoint
6°C / 43°F 1°C / 34°F
Humidity Altimeter Pressure
71% 29.59" Hg 1002 hPa